createdAt,value
2023-03-04T00:00:17.489Z,0.00
2023-03-04T00:01:17.486Z,0.00
2023-03-04T00:02:17.627Z,0.00
2023-03-04T00:03:17.497Z,0.00
2023-03-04T00:04:17.458Z,0.00
2023-03-04T00:05:17.457Z,0.00
2023-03-04T00:06:17.434Z,0.00
2023-03-04T00:07:17.443Z,0.00
2023-03-04T00:08:17.408Z,0.00
2023-03-04T00:09:17.411Z,0.00
2023-03-04T00:10:17.392Z,0.00
2023-03-04T00:11:17.391Z,0.00
2023-03-04T00:12:17.373Z,0.00
2023-03-04T00:13:17.354Z,0.00
2023-03-04T00:14:17.348Z,0.00
2023-03-04T00:15:17.356Z,0.00
2023-03-04T00:16:17.342Z,0.00
2023-03-04T00:17:17.330Z,0.00
2023-03-04T00:18:17.323Z,0.00
2023-03-04T00:19:17.300Z,0.00
2023-03-04T00:20:17.295Z,0.00
2023-03-04T00:21:17.274Z,0.00
2023-03-04T00:22:17.263Z,0.00
2023-03-04T00:23:17.280Z,0.00
2023-03-04T00:24:17.240Z,0.00
2023-03-04T00:25:17.235Z,0.00
2023-03-04T00:26:17.233Z,0.00
2023-03-04T00:27:17.206Z,0.00
2023-03-04T00:28:17.204Z,0.00
2023-03-04T00:29:17.199Z,0.00
2023-03-04T00:30:17.177Z,0.00
2023-03-04T00:31:17.241Z,0.00
2023-03-04T00:32:17.189Z,0.00
2023-03-04T00:33:17.155Z,0.00
2023-03-04T00:34:17.133Z,0.00
2023-03-04T00:35:17.127Z,0.00
2023-03-04T00:36:17.120Z,0.00
2023-03-04T00:37:17.113Z,0.00
2023-03-04T00:38:17.110Z,0.00
2023-03-04T00:39:17.098Z,0.00
2023-03-04T00:40:17.076Z,0.00
2023-03-04T00:41:17.062Z,0.00
2023-03-04T00:42:17.051Z,0.00
2023-03-04T00:43:17.036Z,0.00
2023-03-04T00:44:17.058Z,0.00
2023-03-04T00:45:17.028Z,0.00
2023-03-04T00:46:17.124Z,0.00
2023-03-04T00:47:16.997Z,0.00
2023-03-04T00:48:16.995Z,0.00
2023-03-04T00:49:16.977Z,0.00
2023-03-04T00:50:16.977Z,0.00
2023-03-04T00:51:16.958Z,0.00
2023-03-04T00:52:16.958Z,0.00
2023-03-04T00:53:16.941Z,0.00
2023-03-04T00:54:16.934Z,0.00
2023-03-04T00:55:16.936Z,0.00
2023-03-04T00:56:16.903Z,0.00
2023-03-04T00:57:16.886Z,0.00
2023-03-04T00:58:16.899Z,0.00
2023-03-04T00:59:16.870Z,0.00
2023-03-04T01:00:16.870Z,0.00
2023-03-04T01:01:16.856Z,0.00
2023-03-04T01:02:16.863Z,0.00
2023-03-04T01:03:16.825Z,0.00
2023-03-04T01:04:16.833Z,0.00
2023-03-04T01:05:16.802Z,0.00
2023-03-04T01:06:16.814Z,0.00
2023-03-04T01:07:16.784Z,0.00
2023-03-04T01:08:16.774Z,0.00
2023-03-04T01:09:16.768Z,0.00
2023-03-04T01:10:16.770Z,0.00
2023-03-04T01:11:16.777Z,0.00
2023-03-04T01:12:16.734Z,0.00
2023-03-04T01:13:16.725Z,0.00
2023-03-04T01:14:16.718Z,0.00
2023-03-04T01:15:16.695Z,0.00
2023-03-04T01:16:16.752Z,0.00
2023-03-04T01:17:16.723Z,0.00
2023-03-04T01:18:16.681Z,0.00
2023-03-04T01:19:16.654Z,0.00
2023-03-04T01:20:16.656Z,0.00
2023-03-04T01:21:16.677Z,0.00
2023-03-04T01:22:16.656Z,0.00
2023-03-04T01:23:16.615Z,0.00
2023-03-04T01:24:16.606Z,0.00
2023-03-04T01:25:16.596Z,0.00
2023-03-04T01:26:16.584Z,0.00
2023-03-04T01:27:16.600Z,0.00
2023-03-04T01:28:16.579Z,0.00
2023-03-04T01:29:16.555Z,0.00
2023-03-04T01:30:16.562Z,0.00
2023-03-04T01:31:16.581Z,0.00
2023-03-04T01:32:16.596Z,0.00
2023-03-04T01:33:16.508Z,0.00
2023-03-04T01:34:16.497Z,0.00
2023-03-04T01:35:16.498Z,0.00
2023-03-04T01:36:16.488Z,0.00
2023-03-04T01:37:16.463Z,0.00
2023-03-04T01:38:16.465Z,0.00
2023-03-04T01:39:16.446Z,0.00
2023-03-04T01:40:16.461Z,0.00
2023-03-04T01:41:16.428Z,0.00
2023-03-04T01:42:16.422Z,0.00
2023-03-04T01:43:16.455Z,0.00
2023-03-04T01:44:16.396Z,0.00
2023-03-04T01:45:16.385Z,0.00
2023-03-04T01:46:16.407Z,0.00
2023-03-04T01:47:16.358Z,0.00
2023-03-04T01:48:16.366Z,0.00
2023-03-04T01:49:16.442Z,0.00
2023-03-04T01:50:16.329Z,0.00
2023-03-04T01:51:16.327Z,0.00
2023-03-04T01:52:16.311Z,0.00
2023-03-04T01:53:16.296Z,0.00
2023-03-04T01:54:16.300Z,0.00
2023-03-04T01:55:16.295Z,0.00
2023-03-04T01:56:16.269Z,0.00
2023-03-04T01:57:16.255Z,0.00
2023-03-04T01:58:16.246Z,0.00
2023-03-04T01:59:16.264Z,0.00
2023-03-04T02:00:16.230Z,0.00
2023-03-04T02:01:16.252Z,0.00
2023-03-04T02:02:16.201Z,0.00
2023-03-04T02:03:16.190Z,0.00
2023-03-04T02:04:16.229Z,0.00
2023-03-04T02:05:16.181Z,0.00
2023-03-04T02:06:16.167Z,0.00
2023-03-04T02:07:16.164Z,0.00
2023-03-04T02:08:16.139Z,0.00
2023-03-04T02:09:16.125Z,0.00
2023-03-04T02:10:16.132Z,0.00
2023-03-04T02:11:16.102Z,0.00
2023-03-04T02:12:16.113Z,0.00
2023-03-04T02:13:16.087Z,0.00
2023-03-04T02:14:16.083Z,0.00
2023-03-04T02:15:16.081Z,0.00
2023-03-04T02:16:16.100Z,0.00
2023-03-04T02:17:16.038Z,0.00
2023-03-04T02:18:16.049Z,0.00
2023-03-04T02:19:16.031Z,0.00
2023-03-04T02:20:16.022Z,0.00
2023-03-04T02:21:16.000Z,0.00
2023-03-04T02:22:15.998Z,0.00
2023-03-04T02:23:15.977Z,0.00
2023-03-04T02:24:15.986Z,0.00
2023-03-04T02:25:15.990Z,0.00
2023-03-04T02:26:15.953Z,0.00
2023-03-04T02:27:15.939Z,0.00
2023-03-04T02:28:15.944Z,0.00
2023-03-04T02:29:15.911Z,0.00
2023-03-04T02:30:15.920Z,0.00
2023-03-04T02:31:15.928Z,0.00
2023-03-04T02:32:15.913Z,0.00
2023-03-04T02:33:15.886Z,0.00
2023-03-04T02:34:15.869Z,0.00
2023-03-04T02:35:15.846Z,0.00
2023-03-04T02:36:15.867Z,0.00
2023-03-04T02:37:15.827Z,0.00
2023-03-04T02:38:15.818Z,0.00
2023-03-04T02:39:15.807Z,0.00
2023-03-04T02:40:15.808Z,0.00
2023-03-04T02:41:15.782Z,0.00
2023-03-04T02:42:15.788Z,0.00
2023-03-04T02:43:15.767Z,0.00
2023-03-04T02:44:15.763Z,0.00
2023-03-04T02:45:15.739Z,0.00
2023-03-04T02:46:15.809Z,0.00
2023-03-04T02:47:15.754Z,0.00
2023-03-04T02:48:15.712Z,0.00
2023-03-04T02:49:15.699Z,0.00
2023-03-04T02:50:15.692Z,0.00
2023-03-04T02:51:15.675Z,0.00
2023-03-04T02:52:15.685Z,0.00
2023-03-04T02:53:15.668Z,0.00
2023-03-04T02:54:15.646Z,0.00
2023-03-04T02:55:15.633Z,0.00
2023-03-04T02:56:15.627Z,0.00
2023-03-04T02:57:15.628Z,0.00
2023-03-04T02:58:15.609Z,0.00
2023-03-04T02:59:15.603Z,0.00
2023-03-04T03:00:15.588Z,0.00
2023-03-04T03:01:15.571Z,0.00
2023-03-04T03:02:15.562Z,0.00
2023-03-04T03:03:15.573Z,0.00
2023-03-04T03:04:15.581Z,0.00
2023-03-04T03:05:15.541Z,0.00
2023-03-04T03:06:15.526Z,0.00
2023-03-04T03:07:15.506Z,0.00
2023-03-04T03:08:15.500Z,0.00
2023-03-04T03:09:15.490Z,0.00
2023-03-04T03:10:15.499Z,0.00
2023-03-04T03:11:15.474Z,0.00
2023-03-04T03:12:15.457Z,0.00
2023-03-04T03:13:15.452Z,0.00
2023-03-04T03:14:15.433Z,0.00
2023-03-04T03:15:15.424Z,0.00
2023-03-04T03:16:15.469Z,0.00
2023-03-04T03:17:15.405Z,0.00
2023-03-04T03:18:15.392Z,0.00
2023-03-04T03:19:15.423Z,0.00
2023-03-04T03:20:15.371Z,0.00
2023-03-04T03:21:15.354Z,0.00
2023-03-04T03:22:15.349Z,0.00
2023-03-04T03:23:15.338Z,0.00
2023-03-04T03:24:15.332Z,0.00
2023-03-04T03:25:15.323Z,0.00
2023-03-04T03:26:15.316Z,0.00
2023-03-04T03:27:15.289Z,0.00
2023-03-04T03:28:15.281Z,0.00
2023-03-04T03:29:15.271Z,0.00
2023-03-04T03:30:15.280Z,0.00
2023-03-04T03:31:15.307Z,0.00
2023-03-04T03:32:15.267Z,0.00
2023-03-04T03:33:15.222Z,0.00
2023-03-04T03:34:15.216Z,0.00
2023-03-04T03:35:15.234Z,0.00
2023-03-04T03:36:15.215Z,0.00
2023-03-04T03:37:15.190Z,0.00
2023-03-04T03:38:15.172Z,0.00
2023-03-04T03:39:15.165Z,0.00
2023-03-04T03:40:15.151Z,0.00
2023-03-04T03:41:15.148Z,0.00
2023-03-04T03:42:15.133Z,0.00
2023-03-04T03:43:15.125Z,0.00
2023-03-04T03:44:15.121Z,0.00
2023-03-04T03:45:15.096Z,0.00
2023-03-04T03:46:15.086Z,0.00
2023-03-04T03:47:15.101Z,0.00
2023-03-04T03:48:15.068Z,0.00
2023-03-04T03:49:15.062Z,0.00
2023-03-04T03:50:15.055Z,0.00
2023-03-04T03:51:15.053Z,0.00
2023-03-04T03:52:15.039Z,0.00
2023-03-04T03:53:15.023Z,0.00
2023-03-04T03:54:15.007Z,0.00
2023-03-04T03:55:14.999Z,0.00
2023-03-04T03:56:14.996Z,0.00
2023-03-04T03:57:14.967Z,0.00
2023-03-04T03:58:14.973Z,0.00
2023-03-04T03:59:14.962Z,0.00
2023-03-04T04:00:14.942Z,0.00
2023-03-04T04:01:14.931Z,0.00
2023-03-04T04:02:15.072Z,0.00
2023-03-04T04:03:14.905Z,0.00
2023-03-04T04:04:14.898Z,0.00
2023-03-04T04:05:14.897Z,0.00
2023-03-04T04:06:14.876Z,0.00
2023-03-04T04:07:14.883Z,0.00
2023-03-04T04:08:14.874Z,0.00
2023-03-04T04:09:14.851Z,0.00
2023-03-04T04:10:14.839Z,0.00
2023-03-04T04:11:14.822Z,0.00
2023-03-04T04:12:14.815Z,0.00
2023-03-04T04:13:14.800Z,0.00
2023-03-04T04:14:14.801Z,0.00
2023-03-04T04:15:14.805Z,0.00
2023-03-04T04:16:14.918Z,0.00
2023-03-04T04:17:14.763Z,0.00
2023-03-04T04:18:14.759Z,0.00
2023-03-04T04:19:14.800Z,0.00
2023-03-04T04:20:14.729Z,0.00
2023-03-04T04:21:14.748Z,0.00
2023-03-04T04:22:14.705Z,0.00
2023-03-04T04:23:14.720Z,0.00
2023-03-04T04:24:14.688Z,0.00
2023-03-04T04:25:14.720Z,0.00
2023-03-04T04:26:14.664Z,0.00
2023-03-04T04:27:14.665Z,0.00
2023-03-04T04:28:14.678Z,0.00
2023-03-04T04:29:14.623Z,0.00
2023-03-04T04:30:14.614Z,0.00
2023-03-04T04:31:14.708Z,0.00
2023-03-04T04:32:14.627Z,0.00
2023-03-04T04:33:14.604Z,0.00
2023-03-04T04:34:14.581Z,0.00
2023-03-04T04:35:14.574Z,0.00
2023-03-04T04:36:14.576Z,0.00
2023-03-04T04:37:14.539Z,0.00
2023-03-04T04:38:14.524Z,0.00
2023-03-04T04:39:14.540Z,0.00
2023-03-04T04:40:14.509Z,0.00
2023-03-04T04:41:14.503Z,0.00
2023-03-04T04:42:14.487Z,0.00
2023-03-04T04:43:14.482Z,0.00
2023-03-04T04:44:14.461Z,0.00
2023-03-04T04:45:14.465Z,0.00
2023-03-04T04:46:14.505Z,0.00
2023-03-04T04:47:14.461Z,0.00
2023-03-04T04:48:14.429Z,0.00
2023-03-04T04:49:14.448Z,0.00
2023-03-04T04:50:14.397Z,0.00
2023-03-04T04:51:14.409Z,0.00
2023-03-04T04:52:14.374Z,0.00
2023-03-04T04:53:14.378Z,0.00
2023-03-04T04:54:14.372Z,0.00
2023-03-04T04:55:14.364Z,0.00
2023-03-04T04:56:14.329Z,0.00
2023-03-04T04:57:14.334Z,0.00
2023-03-04T04:58:14.308Z,0.00
2023-03-04T04:59:14.319Z,0.00
2023-03-04T05:00:14.309Z,0.00
2023-03-04T05:01:14.352Z,0.00
2023-03-04T05:02:14.267Z,0.00
2023-03-04T05:03:14.292Z,0.00
2023-03-04T05:04:14.262Z,0.00
2023-03-04T05:05:14.243Z,0.00
2023-03-04T05:06:14.245Z,0.00
2023-03-04T05:07:14.242Z,0.00
2023-03-04T05:08:14.211Z,0.00
2023-03-04T05:09:14.206Z,0.00
2023-03-04T05:10:14.190Z,0.00
2023-03-04T05:11:14.204Z,0.00
2023-03-04T05:12:14.184Z,0.00
2023-03-04T05:13:14.158Z,0.00
2023-03-04T05:14:14.151Z,0.00
2023-03-04T05:15:14.148Z,0.00
2023-03-04T05:16:14.152Z,0.00
2023-03-04T05:17:14.120Z,0.00
2023-03-04T05:18:14.125Z,0.00
2023-03-04T05:19:14.097Z,0.00
2023-03-04T05:20:14.079Z,0.00
2023-03-04T05:21:14.082Z,0.00
2023-03-04T05:22:14.073Z,0.00
2023-03-04T05:23:14.068Z,0.00
2023-03-04T05:24:14.039Z,0.00
2023-03-04T05:25:14.030Z,4.00
2023-03-04T05:26:14.016Z,0.00
2023-03-04T05:27:14.029Z,4.00
2023-03-04T05:28:14.005Z,4.00
2023-03-04T05:29:14.020Z,4.00
2023-03-04T05:30:13.974Z,4.00
2023-03-04T05:31:14.020Z,4.00
2023-03-04T05:32:13.994Z,8.00
2023-03-04T05:33:13.946Z,8.00
2023-03-04T05:34:13.938Z,12.00
2023-03-04T05:35:13.940Z,12.00
2023-03-04T05:36:13.921Z,16.00
2023-03-04T05:37:13.902Z,16.00
2023-03-04T05:38:13.890Z,24.00
2023-03-04T05:39:13.885Z,28.00
2023-03-04T05:40:13.888Z,32.00
2023-03-04T05:41:13.862Z,36.00
2023-03-04T05:42:13.848Z,48.00
2023-03-04T05:43:13.863Z,52.00
2023-03-04T05:44:13.826Z,64.00
2023-03-04T05:45:13.827Z,76.00
2023-03-04T05:46:13.842Z,92.00
2023-03-04T05:47:13.805Z,108.00
2023-03-04T05:48:13.785Z,128.00
2023-03-04T05:49:13.792Z,144.00
2023-03-04T05:50:13.775Z,172.00
2023-03-04T05:51:13.772Z,196.00
2023-03-04T05:52:13.754Z,232.00
2023-03-04T05:53:13.736Z,264.00
2023-03-04T05:54:13.728Z,304.00
2023-03-04T05:55:13.726Z,336.00
2023-03-04T05:56:13.709Z,372.00
2023-03-04T05:57:13.695Z,412.00
2023-03-04T05:58:13.690Z,456.00
2023-03-04T05:59:13.692Z,500.00
2023-03-04T06:00:13.657Z,552.00
2023-03-04T06:01:13.680Z,612.00
2023-03-04T06:02:13.636Z,672.00
2023-03-04T06:03:13.631Z,732.00
2023-03-04T06:04:13.678Z,792.00
2023-03-04T06:05:13.610Z,856.00
2023-03-04T06:06:13.604Z,920.00
2023-03-04T06:07:13.620Z,988.00
2023-03-04T06:08:13.589Z,1056.00
2023-03-04T06:09:13.570Z,1128.00
2023-03-04T06:10:13.558Z,1200.00
2023-03-04T06:11:13.545Z,1264.00
2023-03-04T06:12:13.530Z,1328.00
2023-03-04T06:13:13.538Z,1392.00
2023-03-04T06:14:13.543Z,1468.00
2023-03-04T06:15:13.530Z,1544.00
2023-03-04T06:16:13.531Z,1624.00
2023-03-04T06:17:13.480Z,1696.00
2023-03-04T06:18:13.466Z,1776.00
2023-03-04T06:19:13.472Z,1852.00
2023-03-04T06:20:13.442Z,1924.00
2023-03-04T06:21:13.436Z,1992.00
2023-03-04T06:22:13.431Z,2052.00
2023-03-04T06:23:13.415Z,2112.00
2023-03-04T06:24:13.408Z,2176.00
2023-03-04T06:25:13.438Z,2240.00
2023-03-04T06:26:13.381Z,2312.00
2023-03-04T06:27:13.375Z,2380.00
2023-03-04T06:28:13.372Z,2440.00
2023-03-04T06:29:13.352Z,2504.00
2023-03-04T06:30:13.349Z,2580.00
2023-03-04T06:31:13.406Z,2668.00
2023-03-04T06:32:13.317Z,2756.00
2023-03-04T06:33:13.308Z,2828.00
2023-03-04T06:34:13.302Z,2876.00
2023-03-04T06:35:13.286Z,2904.00
2023-03-04T06:36:13.286Z,2908.00
2023-03-04T06:37:13.278Z,2912.00
2023-03-04T06:38:13.270Z,2948.00
2023-03-04T06:39:13.246Z,3012.00
2023-03-04T06:40:13.252Z,3080.00
2023-03-04T06:41:13.222Z,3140.00
2023-03-04T06:42:13.212Z,3188.00
2023-03-04T06:43:13.203Z,3240.00
2023-03-04T06:44:13.186Z,3312.00
2023-03-04T06:45:13.190Z,3388.00
2023-03-04T06:46:13.209Z,3456.00
2023-03-04T06:47:13.182Z,3544.00
2023-03-04T06:48:13.147Z,3644.00
2023-03-04T06:49:13.136Z,3736.00
2023-03-04T06:50:13.133Z,3788.00
2023-03-04T06:51:13.139Z,3792.00
2023-03-04T06:52:13.108Z,3800.00
2023-03-04T06:53:13.095Z,3836.00
2023-03-04T06:54:13.089Z,3888.00
2023-03-04T06:55:13.073Z,3920.00
2023-03-04T06:56:13.058Z,3932.00
2023-03-04T06:57:13.064Z,3960.00
2023-03-04T06:58:13.044Z,4072.00
2023-03-04T06:59:13.031Z,4180.00
2023-03-04T07:00:13.023Z,4264.00
2023-03-04T07:01:13.150Z,4336.00
2023-03-04T07:02:13.032Z,4416.00
2023-03-04T07:03:13.014Z,4508.00
2023-03-04T07:04:13.061Z,4648.00
2023-03-04T07:05:12.972Z,4860.00
2023-03-04T07:06:12.958Z,5132.00
2023-03-04T07:07:12.943Z,5488.00
2023-03-04T07:08:12.944Z,5872.00
2023-03-04T07:09:12.931Z,6292.00
2023-03-04T07:10:12.918Z,6884.00
2023-03-04T07:11:12.904Z,7700.00
2023-03-04T07:12:12.889Z,8556.00
2023-03-04T07:13:12.910Z,9276.00
2023-03-04T07:14:12.887Z,9840.00
2023-03-04T07:15:12.875Z,10380.00
2023-03-04T07:16:12.870Z,10944.00
2023-03-04T07:17:12.863Z,11536.00
2023-03-04T07:18:12.824Z,12144.00
2023-03-04T07:19:12.926Z,16224.00
2023-03-04T07:20:12.801Z,22656.00
2023-03-04T07:21:12.795Z,25344.00
2023-03-04T07:22:12.792Z,24896.00
2023-03-04T07:23:12.780Z,23680.00
2023-03-04T07:24:12.769Z,24640.00
2023-03-04T07:25:12.776Z,24768.00
2023-03-04T07:26:12.740Z,24960.00
2023-03-04T07:27:12.745Z,23744.00
2023-03-04T07:28:12.729Z,23648.00
2023-03-04T07:29:12.708Z,24032.00
2023-03-04T07:30:12.696Z,24128.00
2023-03-04T07:31:12.700Z,23840.00
2023-03-04T07:32:12.805Z,27456.00
2023-03-04T07:33:12.670Z,30624.00
2023-03-04T07:34:12.672Z,30656.00
2023-03-04T07:35:12.678Z,30048.00
2023-03-04T07:36:12.632Z,29504.00
2023-03-04T07:37:12.626Z,30368.00
2023-03-04T07:38:12.616Z,31520.00
2023-03-04T07:39:12.602Z,33344.00
2023-03-04T07:40:12.608Z,38048.00
2023-03-04T07:41:12.592Z,40832.00
2023-03-04T07:42:12.567Z,42496.00
2023-03-04T07:43:12.562Z,42144.00
2023-03-04T07:44:13.359Z,40064.00
2023-03-04T07:45:12.543Z,37824.00
2023-03-04T07:46:12.606Z,37920.00
2023-03-04T07:47:12.519Z,41952.00
2023-03-04T07:48:12.505Z,43232.00
2023-03-04T07:49:12.510Z,43200.00
2023-03-04T07:50:12.485Z,45504.00
2023-03-04T07:51:12.535Z,47104.00
2023-03-04T07:52:12.496Z,49120.00
2023-03-04T07:53:12.456Z,51744.00
2023-03-04T07:54:12.443Z,52352.00
2023-03-04T07:55:12.487Z,49216.00
2023-03-04T07:56:12.425Z,51040.00
2023-03-04T07:57:12.435Z,51392.00
2023-03-04T07:58:12.451Z,51424.00
2023-03-04T07:59:12.418Z,53600.00
2023-03-04T08:00:12.380Z,56480.00
2023-03-04T08:01:12.400Z,59968.00
2023-03-04T08:02:12.434Z,62272.00
2023-03-04T08:03:12.420Z,65216.00
2023-03-04T08:04:12.503Z,65696.00
2023-03-04T08:05:12.369Z,65920.00
2023-03-04T08:06:12.320Z,65728.00
2023-03-04T08:07:12.327Z,64544.00
2023-03-04T08:08:12.294Z,64512.00
2023-03-04T08:09:12.341Z,63456.00
2023-03-04T08:10:12.272Z,58368.00
2023-03-04T08:11:12.280Z,55712.00
2023-03-04T08:12:12.252Z,66464.00
2023-03-04T08:13:12.248Z,72224.00
2023-03-04T08:14:12.242Z,74240.00
2023-03-04T08:15:12.260Z,73760.00
2023-03-04T08:16:12.278Z,73344.00
2023-03-04T08:17:12.210Z,76320.00
2023-03-04T08:18:12.188Z,76032.00
2023-03-04T08:19:12.532Z,69664.00
2023-03-04T08:20:12.158Z,65408.00
2023-03-04T08:21:12.211Z,66816.00
2023-03-04T08:22:12.136Z,67328.00
2023-03-04T08:23:12.153Z,70048.00
2023-03-04T08:24:12.117Z,73792.00
2023-03-04T08:25:12.111Z,78688.00
2023-03-04T08:26:12.098Z,76480.00
2023-03-04T08:27:12.152Z,73280.00
2023-03-04T08:28:12.072Z,70464.00
2023-03-04T08:29:12.063Z,70720.00
2023-03-04T08:30:12.050Z,72192.00
2023-03-04T08:31:12.177Z,69888.00
2023-03-04T08:32:12.131Z,69568.00
2023-03-04T08:33:12.092Z,70944.00
2023-03-04T08:34:12.006Z,70432.00
2023-03-04T08:35:12.002Z,72352.00
2023-03-04T08:36:11.981Z,74560.00
2023-03-04T08:37:11.977Z,78272.00
2023-03-04T08:38:11.958Z,77504.00
2023-03-04T08:39:12.020Z,77632.00
2023-03-04T08:40:11.937Z,78816.00
2023-03-04T08:41:11.931Z,79776.00
2023-03-04T08:42:11.917Z,80800.00
2023-03-04T08:43:12.088Z,86112.00
2023-03-04T08:44:11.896Z,87968.00
2023-03-04T08:45:11.937Z,87936.00
2023-03-04T08:46:11.902Z,88672.00
2023-03-04T08:47:11.862Z,88512.00
2023-03-04T08:48:11.865Z,89280.00
2023-03-04T08:49:11.852Z,88352.00
2023-03-04T08:50:11.840Z,87168.00
2023-03-04T08:51:11.873Z,83168.00
2023-03-04T08:52:11.813Z,85408.00
2023-03-04T08:53:11.803Z,84224.00
2023-03-04T08:54:11.792Z,85280.00
2023-03-04T08:55:11.842Z,86624.00
2023-03-04T08:56:11.772Z,83872.00
2023-03-04T08:57:11.837Z,81536.00
2023-03-04T08:58:11.751Z,80064.00
2023-03-04T08:59:11.772Z,80416.00
2023-03-04T09:00:11.737Z,80384.00
2023-03-04T09:01:11.770Z,81568.00
2023-03-04T09:02:11.709Z,83648.00
2023-03-04T09:03:11.840Z,85472.00
2023-03-04T09:04:11.688Z,86848.00
2023-03-04T09:05:11.676Z,85056.00
2023-03-04T09:06:11.662Z,83776.00
2023-03-04T09:07:11.660Z,80480.00
2023-03-04T09:08:11.650Z,75104.00
2023-03-04T09:09:11.653Z,82176.00
2023-03-04T09:10:11.622Z,85184.00
2023-03-04T09:11:11.641Z,84704.00
2023-03-04T09:12:11.613Z,87488.00
2023-03-04T09:13:11.591Z,87328.00
2023-03-04T09:14:11.579Z,85824.00
2023-03-04T09:15:12.171Z,85856.00
2023-03-04T09:16:11.610Z,85824.00
2023-03-04T09:17:11.546Z,84768.00
2023-03-04T09:18:11.534Z,82944.00
2023-03-04T09:19:11.521Z,81984.00
2023-03-04T09:20:11.572Z,80224.00
2023-03-04T09:21:11.804Z,77376.00
2023-03-04T09:22:11.486Z,75680.00
2023-03-04T09:23:11.531Z,73568.00
2023-03-04T09:24:11.467Z,69376.00
2023-03-04T09:25:13.098Z,67456.00
2023-03-04T09:26:11.446Z,64512.00
2023-03-04T09:27:11.471Z,61472.00
2023-03-04T09:28:11.478Z,61440.00
2023-03-04T09:29:11.422Z,61760.00
2023-03-04T09:30:11.399Z,64096.00
2023-03-04T09:31:11.426Z,65184.00
2023-03-04T09:32:11.430Z,69312.00
2023-03-04T09:33:11.374Z,69696.00
2023-03-04T09:34:11.403Z,72288.00
2023-03-04T09:35:11.350Z,72672.00
2023-03-04T09:36:11.346Z,73984.00
2023-03-04T09:37:11.331Z,73216.00
2023-03-04T09:38:11.332Z,75712.00
2023-03-04T09:39:11.305Z,76640.00
2023-03-04T09:40:11.356Z,79008.00
2023-03-04T09:41:11.307Z,83232.00
2023-03-04T09:42:11.271Z,86528.00
2023-03-04T09:43:11.291Z,88512.00
2023-03-04T09:44:11.248Z,87488.00
2023-03-04T09:45:11.240Z,86528.00
2023-03-04T09:46:11.281Z,88480.00
2023-03-04T09:47:11.231Z,88608.00
2023-03-04T09:48:11.213Z,88608.00
2023-03-04T09:49:11.198Z,95712.00
2023-03-04T09:50:11.182Z,96864.00
2023-03-04T09:51:11.200Z,97152.00
2023-03-04T09:52:11.224Z,93344.00
2023-03-04T09:53:11.154Z,95680.00
2023-03-04T09:54:11.137Z,97088.00
2023-03-04T09:55:11.133Z,100224.00
2023-03-04T09:56:11.116Z,100448.00
2023-03-04T09:57:11.107Z,99424.00
2023-03-04T09:58:11.136Z,102528.00
2023-03-04T09:59:11.107Z,106944.00
2023-03-04T10:00:11.076Z,100480.00
2023-03-04T10:01:11.064Z,97824.00
2023-03-04T10:02:11.052Z,103360.00
2023-03-04T10:03:11.106Z,97632.00
2023-03-04T10:04:11.089Z,96608.00
2023-03-04T10:05:11.024Z,91552.00
2023-03-04T10:06:11.007Z,96416.00
2023-03-04T10:07:10.999Z,100768.00
2023-03-04T10:08:10.982Z,103200.00
2023-03-04T10:09:10.984Z,108256.00
2023-03-04T10:10:11.023Z,116448.00
2023-03-04T10:11:10.953Z,116352.00
2023-03-04T10:12:10.947Z,114656.00
2023-03-04T10:13:11.956Z,114272.00
2023-03-04T10:14:10.931Z,111520.00
2023-03-04T10:15:10.930Z,114176.00
2023-03-04T10:16:10.991Z,114784.00
2023-03-04T10:17:10.924Z,107680.00
2023-03-04T10:18:10.875Z,110560.00
2023-03-04T10:19:10.875Z,104672.00
2023-03-04T10:20:10.865Z,103296.00
2023-03-04T10:21:10.845Z,102944.00
2023-03-04T10:22:10.862Z,101120.00
2023-03-04T10:23:10.852Z,93984.00
2023-03-04T10:24:10.814Z,97120.00
2023-03-04T10:25:10.802Z,97888.00
2023-03-04T10:26:10.788Z,100736.00
2023-03-04T10:27:10.774Z,98560.00
2023-03-04T10:28:10.802Z,101888.00
2023-03-04T10:29:10.765Z,100416.00
2023-03-04T10:30:10.755Z,98752.00
2023-03-04T10:31:10.811Z,99296.00
2023-03-04T10:32:10.739Z,99840.00
2023-03-04T10:33:10.721Z,98912.00
2023-03-04T10:34:10.721Z,101664.00
2023-03-04T10:35:10.716Z,103584.00
2023-03-04T10:36:10.682Z,99360.00
2023-03-04T10:37:10.686Z,97664.00
2023-03-04T10:38:10.681Z,99456.00
2023-03-04T10:39:10.643Z,102976.00
2023-03-04T10:40:10.692Z,99680.00
2023-03-04T10:41:10.641Z,105152.00
2023-03-04T10:42:10.727Z,105760.00
2023-03-04T10:43:10.595Z,103712.00
2023-03-04T10:44:10.578Z,101472.00
2023-03-04T10:45:10.637Z,99808.00
2023-03-04T10:46:10.654Z,100352.00
2023-03-04T10:47:10.568Z,102080.00
2023-03-04T10:48:10.559Z,99072.00
2023-03-04T10:49:10.530Z,101856.00
2023-03-04T10:50:10.513Z,98976.00
2023-03-04T10:51:10.516Z,98464.00
2023-03-04T10:52:10.525Z,93760.00
2023-03-04T10:53:10.480Z,89920.00
2023-03-04T10:54:10.472Z,97920.00
2023-03-04T10:55:10.490Z,98944.00
2023-03-04T10:56:10.474Z,99680.00
2023-03-04T10:57:10.433Z,100608.00
2023-03-04T10:58:10.435Z,104992.00
2023-03-04T10:59:10.417Z,101728.00
2023-03-04T11:00:10.439Z,100480.00
2023-03-04T11:01:10.403Z,100544.00
2023-03-04T11:02:10.374Z,99776.00
2023-03-04T11:03:10.389Z,94336.00
2023-03-04T11:04:10.404Z,96160.00
2023-03-04T11:05:10.385Z,96800.00
2023-03-04T11:06:10.356Z,97856.00
2023-03-04T11:07:10.328Z,97664.00
2023-03-04T11:08:10.316Z,67040.00
2023-03-04T11:09:10.299Z,102240.00
2023-03-04T11:10:10.287Z,97568.00
2023-03-04T11:11:10.288Z,98144.00
2023-03-04T11:12:10.283Z,105888.00
2023-03-04T11:13:10.258Z,104832.00
2023-03-04T11:14:10.245Z,106880.00
2023-03-04T11:15:10.230Z,108672.00
2023-03-04T11:16:10.229Z,105536.00
2023-03-04T11:17:10.221Z,104640.00
2023-03-04T11:18:10.253Z,102976.00
2023-03-04T11:19:10.204Z,96576.00
2023-03-04T11:20:10.200Z,88672.00
2023-03-04T11:21:10.164Z,84128.00
2023-03-04T11:22:10.169Z,87040.00
2023-03-04T11:23:10.143Z,92000.00
2023-03-04T11:24:25.736Z,93856.00
2023-03-04T11:25:11.120Z,97440.00
2023-03-04T11:26:10.108Z,99040.00
2023-03-04T11:27:10.102Z,101184.00
2023-03-04T11:28:11.495Z,103264.00
2023-03-04T11:29:10.078Z,101504.00
2023-03-04T11:30:10.094Z,99968.00
2023-03-04T11:31:10.053Z,94816.00
2023-03-04T11:32:10.180Z,91392.00
2023-03-04T11:33:10.032Z,89120.00
2023-03-04T11:34:12.154Z,87136.00
2023-03-04T11:35:10.029Z,87040.00
2023-03-04T11:36:10.023Z,86816.00
2023-03-04T11:37:09.994Z,87712.00
2023-03-04T11:38:09.982Z,88928.00
2023-03-04T11:39:09.992Z,94464.00
2023-03-04T11:40:09.978Z,98208.00
2023-03-04T11:41:09.965Z,102304.00
2023-03-04T11:42:09.983Z,104608.00
2023-03-04T11:43:09.961Z,102816.00
2023-03-04T11:44:09.944Z,101472.00
2023-03-04T11:45:26.133Z,102240.00
2023-03-04T11:46:10.923Z,100608.00
2023-03-04T11:47:09.904Z,98304.00
2023-03-04T11:48:09.915Z,95296.00
2023-03-04T11:49:09.894Z,91040.00
2023-03-04T11:50:09.899Z,89984.00
2023-03-04T11:51:12.040Z,81088.00
2023-03-04T11:52:09.852Z,90464.00
2023-03-04T11:53:09.845Z,96160.00
2023-03-04T11:54:09.897Z,97792.00
2023-03-04T11:55:09.828Z,96096.00
2023-03-04T11:56:09.827Z,102112.00
2023-03-04T11:57:11.846Z,103136.00
2023-03-04T11:58:09.785Z,102624.00
2023-03-04T11:59:09.779Z,105088.00
2023-03-04T12:00:09.785Z,101696.00
2023-03-04T12:01:09.757Z,100736.00
2023-03-04T12:02:09.752Z,101216.00
2023-03-04T12:03:11.526Z,102368.00
2023-03-04T12:04:09.883Z,104704.00
2023-03-04T12:05:09.713Z,106496.00
2023-03-04T12:06:09.721Z,105760.00
2023-03-04T12:07:09.718Z,105440.00
2023-03-04T12:08:09.682Z,101504.00
2023-03-04T12:09:09.664Z,99200.00
2023-03-04T12:10:09.648Z,100160.00
2023-03-04T12:11:09.645Z,103552.00
2023-03-04T12:12:09.669Z,103360.00
2023-03-04T12:13:09.624Z,101120.00
2023-03-04T12:14:09.611Z,100640.00
2023-03-04T12:15:09.608Z,99584.00
2023-03-04T12:16:09.683Z,100160.00
2023-03-04T12:17:09.582Z,103168.00
2023-03-04T12:18:09.608Z,100480.00
2023-03-04T12:19:09.569Z,95584.00
2023-03-04T12:20:09.543Z,99648.00
2023-03-04T12:21:09.535Z,98496.00
2023-03-04T12:22:09.547Z,94688.00
2023-03-04T12:23:09.538Z,92384.00
2023-03-04T12:24:09.509Z,92672.00
2023-03-04T12:25:09.524Z,95584.00